sensor_id;sensor_type;location;lat;lon;timestamp;P1;durP1;ratioP1;P2;durP2;ratioP2
73120;SDS011;61307;49.628;-1.624;2023-10-31T00:00:17;4.90;;;2.63;;
73120;SDS011;61307;49.628;-1.624;2023-10-31T00:02:44;4.60;;;2.75;;
73120;SDS011;61307;49.628;-1.624;2023-10-31T00:05:12;5.22;;;2.70;;
73120;SDS011;61307;49.628;-1.624;2023-10-31T00:07:39;5.18;;;2.42;;
73120;SDS011;61307;49.628;-1.624;2023-10-31T00:10:06;4.40;;;2.58;;
73120;SDS011;61307;49.628;-1.624;2023-10-31T00:12:34;3.80;;;2.63;;
73120;SDS011;61307;49.628;-1.624;2023-10-31T00:15:01;4.35;;;2.63;;
73120;SDS011;61307;49.628;-1.624;2023-10-31T00:17:28;4.07;;;3.00;;
73120;SDS011;61307;49.628;-1.624;2023-10-31T00:19:55;4.15;;;2.65;;
73120;SDS011;61307;49.628;-1.624;2023-10-31T00:22:23;5.07;;;2.67;;
73120;SDS011;61307;49.628;-1.624;2023-10-31T00:24:50;4.03;;;2.38;;
73120;SDS011;61307;49.628;-1.624;2023-10-31T00:27:18;4.25;;;2.47;;
73120;SDS011;61307;49.628;-1.624;2023-10-31T00:29:45;3.80;;;2.47;;
73120;SDS011;61307;49.628;-1.624;2023-10-31T00:32:12;3.20;;;2.53;;
73120;SDS011;61307;49.628;-1.624;2023-10-31T00:34:39;6.03;;;3.10;;
73120;SDS011;61307;49.628;-1.624;2023-10-31T00:37:06;3.95;;;2.65;;
73120;SDS011;61307;49.628;-1.624;2023-10-31T00:39:34;6.00;;;2.80;;
73120;SDS011;61307;49.628;-1.624;2023-10-31T00:42:01;3.63;;;2.45;;
73120;SDS011;61307;49.628;-1.624;2023-10-31T00:44:28;4.88;;;2.30;;
73120;SDS011;61307;49.628;-1.624;2023-10-31T00:46:55;5.05;;;2.20;;
73120;SDS011;61307;49.628;-1.624;2023-10-31T00:49:22;4.35;;;2.45;;
73120;SDS011;61307;49.628;-1.624;2023-10-31T00:51:49;4.10;;;2.70;;
73120;SDS011;61307;49.628;-1.624;2023-10-31T00:54:16;4.85;;;2.70;;
73120;SDS011;61307;49.628;-1.624;2023-10-31T00:56:44;6.93;;;2.85;;
73120;SDS011;61307;49.628;-1.624;2023-10-31T00:59:11;3.97;;;2.50;;
73120;SDS011;61307;49.628;-1.624;2023-10-31T01:01:38;7.15;;;2.72;;
73120;SDS011;61307;49.628;-1.624;2023-10-31T01:04:05;5.50;;;2.60;;
73120;SDS011;61307;49.628;-1.624;2023-10-31T01:06:32;3.10;;;2.30;;
73120;SDS011;61307;49.628;-1.624;2023-10-31T01:08:59;3.28;;;2.10;;
73120;SDS011;61307;49.628;-1.624;2023-10-31T01:11:26;4.47;;;2.20;;
73120;SDS011;61307;49.628;-1.624;2023-10-31T01:13:55;3.58;;;2.28;;
73120;SDS011;61307;49.628;-1.624;2023-10-31T01:16:22;2.95;;;2.30;;
73120;SDS011;61307;49.628;-1.624;2023-10-31T01:18:49;4.45;;;2.40;;
73120;SDS011;61307;49.628;-1.624;2023-10-31T01:21:16;3.42;;;2.15;;
73120;SDS011;61307;49.628;-1.624;2023-10-31T01:23:43;4.88;;;2.40;;
73120;SDS011;61307;49.628;-1.624;2023-10-31T01:26:10;6.65;;;2.58;;
73120;SDS011;61307;49.628;-1.624;2023-10-31T01:28:36;5.32;;;2.92;;
73120;SDS011;61307;49.628;-1.624;2023-10-31T01:31:05;3.95;;;2.08;;
73120;SDS011;61307;49.628;-1.624;2023-10-31T01:33:33;4.03;;;2.20;;
73120;SDS011;61307;49.628;-1.624;2023-10-31T01:36:01;6.50;;;2.15;;
73120;SDS011;61307;49.628;-1.624;2023-10-31T01:38:28;3.90;;;2.20;;
73120;SDS011;61307;49.628;-1.624;2023-10-31T01:40:55;3.88;;;2.33;;
73120;SDS011;61307;49.628;-1.624;2023-10-31T01:43:31;4.65;;;2.13;;
73120;SDS011;61307;49.628;-1.624;2023-10-31T01:45:59;2.97;;;2.25;;
73120;SDS011;61307;49.628;-1.624;2023-10-31T01:48:28;4.75;;;2.25;;
73120;SDS011;61307;49.628;-1.624;2023-10-31T01:50:56;4.25;;;2.15;;
73120;SDS011;61307;49.628;-1.624;2023-10-31T01:53:26;5.20;;;2.42;;
73120;SDS011;61307;49.628;-1.624;2023-10-31T01:55:54;3.80;;;2.28;;
73120;SDS011;61307;49.628;-1.624;2023-10-31T01:58:23;4.55;;;2.22;;
73120;SDS011;61307;49.628;-1.624;2023-10-31T02:00:54;5.78;;;2.63;;
73120;SDS011;61307;49.628;-1.624;2023-10-31T02:03:22;3.85;;;2.25;;
73120;SDS011;61307;49.628;-1.624;2023-10-31T02:05:51;4.72;;;2.50;;
73120;SDS011;61307;49.628;-1.624;2023-10-31T02:08:19;3.65;;;2.25;;
73120;SDS011;61307;49.628;-1.624;2023-10-31T02:10:46;4.78;;;2.47;;
73120;SDS011;61307;49.628;-1.624;2023-10-31T02:13:13;3.40;;;2.20;;
73120;SDS011;61307;49.628;-1.624;2023-10-31T02:15:41;4.63;;;2.13;;
73120;SDS011;61307;49.628;-1.624;2023-10-31T02:18:09;5.35;;;2.13;;
73120;SDS011;61307;49.628;-1.624;2023-10-31T02:20:36;5.22;;;2.35;;
73120;SDS011;61307;49.628;-1.624;2023-10-31T02:23:04;6.22;;;3.20;;
73120;SDS011;61307;49.628;-1.624;2023-10-31T02:25:31;5.45;;;2.42;;
73120;SDS011;61307;49.628;-1.624;2023-10-31T02:27:58;4.60;;;2.50;;
73120;SDS011;61307;49.628;-1.624;2023-10-31T02:30:26;3.83;;;2.35;;
73120;SDS011;61307;49.628;-1.624;2023-10-31T02:32:53;3.35;;;2.10;;
73120;SDS011;61307;49.628;-1.624;2023-10-31T02:35:21;3.80;;;2.17;;
73120;SDS011;61307;49.628;-1.624;2023-10-31T02:37:48;6.35;;;1.92;;
73120;SDS011;61307;49.628;-1.624;2023-10-31T02:40:16;5.10;;;2.13;;
73120;SDS011;61307;49.628;-1.624;2023-10-31T02:42:43;3.20;;;1.88;;
73120;SDS011;61307;49.628;-1.624;2023-10-31T02:45:10;2.17;;;1.77;;
73120;SDS011;61307;49.628;-1.624;2023-10-31T02:47:38;3.53;;;2.15;;
73120;SDS011;61307;49.628;-1.624;2023-10-31T02:50:05;4.22;;;1.90;;
73120;SDS011;61307;49.628;-1.624;2023-10-31T02:52:32;4.00;;;2.08;;
73120;SDS011;61307;49.628;-1.624;2023-10-31T02:55:00;5.82;;;1.88;;
73120;SDS011;61307;49.628;-1.624;2023-10-31T02:57:28;5.10;;;1.90;;
73120;SDS011;61307;49.628;-1.624;2023-10-31T02:59:55;3.67;;;2.10;;
73120;SDS011;61307;49.628;-1.624;2023-10-31T03:02:22;3.63;;;2.08;;
73120;SDS011;61307;49.628;-1.624;2023-10-31T03:04:49;3.28;;;1.85;;
73120;SDS011;61307;49.628;-1.624;2023-10-31T03:07:16;3.85;;;2.13;;
73120;SDS011;61307;49.628;-1.624;2023-10-31T03:09:43;3.53;;;2.25;;
73120;SDS011;61307;49.628;-1.624;2023-10-31T03:12:10;3.80;;;2.10;;
73120;SDS011;61307;49.628;-1.624;2023-10-31T03:14:38;2.70;;;1.98;;
73120;SDS011;61307;49.628;-1.624;2023-10-31T03:17:05;5.47;;;2.20;;
73120;SDS011;61307;49.628;-1.624;2023-10-31T03:19:32;5.05;;;2.28;;
73120;SDS011;61307;49.628;-1.624;2023-10-31T03:21:59;4.47;;;2.00;;
73120;SDS011;61307;49.628;-1.624;2023-10-31T03:24:26;5.63;;;2.40;;
73120;SDS011;61307;49.628;-1.624;2023-10-31T03:26:53;2.45;;;1.90;;
73120;SDS011;61307;49.628;-1.624;2023-10-31T03:29:20;3.70;;;2.15;;
73120;SDS011;61307;49.628;-1.624;2023-10-31T03:31:48;5.38;;;2.20;;
73120;SDS011;61307;49.628;-1.624;2023-10-31T03:34:16;4.38;;;2.00;;
73120;SDS011;61307;49.628;-1.624;2023-10-31T03:36:43;4.25;;;1.70;;
73120;SDS011;61307;49.628;-1.624;2023-10-31T03:39:10;2.85;;;1.90;;
73120;SDS011;61307;49.628;-1.624;2023-10-31T03:41:36;3.78;;;2.00;;
73120;SDS011;61307;49.628;-1.624;2023-10-31T03:44:04;4.75;;;1.92;;
73120;SDS011;61307;49.628;-1.624;2023-10-31T03:46:31;3.78;;;1.98;;
73120;SDS011;61307;49.628;-1.624;2023-10-31T03:48:59;3.53;;;2.08;;
73120;SDS011;61307;49.628;-1.624;2023-10-31T03:51:26;3.88;;;1.88;;
73120;SDS011;61307;49.628;-1.624;2023-10-31T03:53:53;4.95;;;1.90;;
73120;SDS011;61307;49.628;-1.624;2023-10-31T03:56:20;3.58;;;1.95;;
73120;SDS011;61307;49.628;-1.624;2023-10-31T03:58:47;3.92;;;1.50;;
73120;SDS011;61307;49.628;-1.624;2023-10-31T04:01:14;3.78;;;1.80;;
73120;SDS011;61307;49.628;-1.624;2023-10-31T04:03:41;3.42;;;1.80;;
73120;SDS011;61307;49.628;-1.624;2023-10-31T04:06:10;4.30;;;1.95;;
73120;SDS011;61307;49.628;-1.624;2023-10-31T04:08:37;4.45;;;2.15;;
73120;SDS011;61307;49.628;-1.624;2023-10-31T04:11:04;3.78;;;1.70;;
73120;SDS011;61307;49.628;-1.624;2023-10-31T04:13:31;4.45;;;2.05;;
73120;SDS011;61307;49.628;-1.624;2023-10-31T04:15:58;3.50;;;1.98;;
73120;SDS011;61307;49.628;-1.624;2023-10-31T04:18:25;3.35;;;1.77;;
73120;SDS011;61307;49.628;-1.624;2023-10-31T04:20:52;2.72;;;1.65;;
73120;SDS011;61307;49.628;-1.624;2023-10-31T04:23:21;3.65;;;1.83;;
73120;SDS011;61307;49.628;-1.624;2023-10-31T04:25:48;5.70;;;1.88;;
73120;SDS011;61307;49.628;-1.624;2023-10-31T04:28:15;3.72;;;1.67;;
73120;SDS011;61307;49.628;-1.624;2023-10-31T04:30:42;5.55;;;1.70;;
73120;SDS011;61307;49.628;-1.624;2023-10-31T04:33:09;3.05;;;1.88;;
73120;SDS011;61307;49.628;-1.624;2023-10-31T04:35:35;5.03;;;1.92;;
73120;SDS011;61307;49.628;-1.624;2023-10-31T04:38:02;2.13;;;1.55;;
73120;SDS011;61307;49.628;-1.624;2023-10-31T04:40:31;3.45;;;1.48;;
73120;SDS011;61307;49.628;-1.624;2023-10-31T04:42:57;4.70;;;1.77;;
73120;SDS011;61307;49.628;-1.624;2023-10-31T04:45:25;5.30;;;2.20;;
73120;SDS011;61307;49.628;-1.624;2023-10-31T04:47:51;6.90;;;2.00;;
73120;SDS011;61307;49.628;-1.624;2023-10-31T04:50:18;2.03;;;1.52;;
73120;SDS011;61307;49.628;-1.624;2023-10-31T04:52:45;3.35;;;1.58;;
73120;SDS011;61307;49.628;-1.624;2023-10-31T04:55:12;2.10;;;1.33;;
73120;SDS011;61307;49.628;-1.624;2023-10-31T04:57:41;2.75;;;1.73;;
73120;SDS011;61307;49.628;-1.624;2023-10-31T05:00:08;2.33;;;1.55;;
73120;SDS011;61307;49.628;-1.624;2023-10-31T05:02:36;3.53;;;1.60;;
73120;SDS011;61307;49.628;-1.624;2023-10-31T05:05:03;2.80;;;1.35;;
73120;SDS011;61307;49.628;-1.624;2023-10-31T05:07:31;5.22;;;1.60;;
73120;SDS011;61307;49.628;-1.624;2023-10-31T05:09:58;3.85;;;1.58;;
73120;SDS011;61307;49.628;-1.624;2023-10-31T05:12:25;5.20;;;1.80;;
73120;SDS011;61307;49.628;-1.624;2023-10-31T05:14:54;3.38;;;1.67;;
73120;SDS011;61307;49.628;-1.624;2023-10-31T05:17:21;3.42;;;1.38;;
73120;SDS011;61307;49.628;-1.624;2023-10-31T05:19:47;3.90;;;1.50;;
73120;SDS011;61307;49.628;-1.624;2023-10-31T05:22:15;4.15;;;1.40;;
73120;SDS011;61307;49.628;-1.624;2023-10-31T05:24:42;4.57;;;1.05;;
73120;SDS011;61307;49.628;-1.624;2023-10-31T05:27:08;2.88;;;1.55;;
73120;SDS011;61307;49.628;-1.624;2023-10-31T05:29:38;3.55;;;1.20;;
73120;SDS011;61307;49.628;-1.624;2023-10-31T05:32:07;3.92;;;1.45;;
73120;SDS011;61307;49.628;-1.624;2023-10-31T05:34:34;4.43;;;1.45;;
73120;SDS011;61307;49.628;-1.624;2023-10-31T05:37:01;2.83;;;1.50;;
73120;SDS011;61307;49.628;-1.624;2023-10-31T05:39:31;3.85;;;1.50;;
73120;SDS011;61307;49.628;-1.624;2023-10-31T05:41:58;3.00;;;1.25;;
73120;SDS011;61307;49.628;-1.624;2023-10-31T05:44:25;4.28;;;1.50;;
73120;SDS011;61307;49.628;-1.624;2023-10-31T05:46:52;3.33;;;1.50;;
73120;SDS011;61307;49.628;-1.624;2023-10-31T05:49:20;4.72;;;1.88;;
73120;SDS011;61307;49.628;-1.624;2023-10-31T05:51:49;3.97;;;1.50;;
73120;SDS011;61307;49.628;-1.624;2023-10-31T05:54:17;2.83;;;1.50;;
73120;SDS011;61307;49.628;-1.624;2023-10-31T05:56:44;3.03;;;1.20;;
73120;SDS011;61307;49.628;-1.624;2023-10-31T05:59:11;3.47;;;1.50;;
73120;SDS011;61307;49.628;-1.624;2023-10-31T06:01:38;3.60;;;1.50;;
73120;SDS011;61307;49.628;-1.624;2023-10-31T06:04:05;5.65;;;1.50;;
73120;SDS011;61307;49.628;-1.624;2023-10-31T06:06:36;1.73;;;1.05;;
73120;SDS011;61307;49.628;-1.624;2023-10-31T06:09:04;3.90;;;1.30;;
73120;SDS011;61307;49.628;-1.624;2023-10-31T06:11:31;3.72;;;1.52;;
73120;SDS011;61307;49.628;-1.624;2023-10-31T06:13:58;2.05;;;1.30;;
73120;SDS011;61307;49.628;-1.624;2023-10-31T06:16:25;3.63;;;1.48;;
73120;SDS011;61307;49.628;-1.624;2023-10-31T06:18:52;3.70;;;1.35;;
73120;SDS011;61307;49.628;-1.624;2023-10-31T06:21:19;3.72;;;1.63;;
73120;SDS011;61307;49.628;-1.624;2023-10-31T06:23:48;3.72;;;1.30;;
73120;SDS011;61307;49.628;-1.624;2023-10-31T06:26:15;3.75;;;1.27;;
73120;SDS011;61307;49.628;-1.624;2023-10-31T06:28:42;5.03;;;1.95;;
73120;SDS011;61307;49.628;-1.624;2023-10-31T06:31:09;4.65;;;1.50;;
73120;SDS011;61307;49.628;-1.624;2023-10-31T06:33:36;3.80;;;1.60;;
73120;SDS011;61307;49.628;-1.624;2023-10-31T06:36:03;4.90;;;1.60;;
73120;SDS011;61307;49.628;-1.624;2023-10-31T06:38:31;3.22;;;1.40;;
73120;SDS011;61307;49.628;-1.624;2023-10-31T06:41:06;3.08;;;1.52;;
73120;SDS011;61307;49.628;-1.624;2023-10-31T06:43:33;2.90;;;1.52;;
73120;SDS011;61307;49.628;-1.624;2023-10-31T06:46:00;5.47;;;1.60;;
73120;SDS011;61307;49.628;-1.624;2023-10-31T06:48:29;7.28;;;1.88;;
73120;SDS011;61307;49.628;-1.624;2023-10-31T06:50:56;8.85;;;1.95;;
73120;SDS011;61307;49.628;-1.624;2023-10-31T06:53:23;5.05;;;1.60;;
73120;SDS011;61307;49.628;-1.624;2023-10-31T06:55:50;4.40;;;1.70;;
73120;SDS011;61307;49.628;-1.624;2023-10-31T06:58:18;2.03;;;1.20;;
73120;SDS011;61307;49.628;-1.624;2023-10-31T07:00:46;3.80;;;1.50;;
73120;SDS011;61307;49.628;-1.624;2023-10-31T07:03:13;7.13;;;1.73;;
73120;SDS011;61307;49.628;-1.624;2023-10-31T07:05:41;5.10;;;1.63;;
73120;SDS011;61307;49.628;-1.624;2023-10-31T07:08:08;6.10;;;1.65;;
73120;SDS011;61307;49.628;-1.624;2023-10-31T07:10:35;6.65;;;1.60;;
73120;SDS011;61307;49.628;-1.624;2023-10-31T07:13:02;6.13;;;1.30;;
73120;SDS011;61307;49.628;-1.624;2023-10-31T07:15:31;4.75;;;1.20;;
73120;SDS011;61307;49.628;-1.624;2023-10-31T07:17:58;6.15;;;1.88;;
73120;SDS011;61307;49.628;-1.624;2023-10-31T07:20:25;5.38;;;1.70;;
73120;SDS011;61307;49.628;-1.624;2023-10-31T07:22:52;4.38;;;1.50;;
73120;SDS011;61307;49.628;-1.624;2023-10-31T07:25:19;6.97;;;1.60;;
73120;SDS011;61307;49.628;-1.624;2023-10-31T07:27:46;3.85;;;1.27;;
73120;SDS011;61307;49.628;-1.624;2023-10-31T07:30:13;6.15;;;1.77;;
73120;SDS011;61307;49.628;-1.624;2023-10-31T07:32:41;5.97;;;1.85;;
73120;SDS011;61307;49.628;-1.624;2023-10-31T07:35:08;4.22;;;1.58;;
73120;SDS011;61307;49.628;-1.624;2023-10-31T07:37:35;4.05;;;1.75;;
73120;SDS011;61307;49.628;-1.624;2023-10-31T07:40:02;5.07;;;1.73;;
73120;SDS011;61307;49.628;-1.624;2023-10-31T07:42:30;3.33;;;1.25;;
73120;SDS011;61307;49.628;-1.624;2023-10-31T07:44:57;5.10;;;1.70;;
73120;SDS011;61307;49.628;-1.624;2023-10-31T07:47:24;4.85;;;1.77;;
73120;SDS011;61307;49.628;-1.624;2023-10-31T07:49:52;8.63;;;2.03;;
73120;SDS011;61307;49.628;-1.624;2023-10-31T07:52:19;5.57;;;1.95;;
73120;SDS011;61307;49.628;-1.624;2023-10-31T07:54:47;4.78;;;1.60;;
73120;SDS011;61307;49.628;-1.624;2023-10-31T07:57:14;4.63;;;1.52;;
73120;SDS011;61307;49.628;-1.624;2023-10-31T07:59:41;3.88;;;1.80;;
73120;SDS011;61307;49.628;-1.624;2023-10-31T08:02:22;5.95;;;1.65;;
73120;SDS011;61307;49.628;-1.624;2023-10-31T08:04:49;4.13;;;1.60;;
73120;SDS011;61307;49.628;-1.624;2023-10-31T08:07:17;4.95;;;1.60;;
73120;SDS011;61307;49.628;-1.624;2023-10-31T08:09:44;5.28;;;1.65;;
73120;SDS011;61307;49.628;-1.624;2023-10-31T08:12:11;5.50;;;2.08;;
73120;SDS011;61307;49.628;-1.624;2023-10-31T08:14:38;4.68;;;1.88;;
73120;SDS011;61307;49.628;-1.624;2023-10-31T08:17:05;4.35;;;1.50;;
73120;SDS011;61307;49.628;-1.624;2023-10-31T08:19:34;7.70;;;1.85;;
73120;SDS011;61307;49.628;-1.624;2023-10-31T08:22:01;4.20;;;1.35;;
73120;SDS011;61307;49.628;-1.624;2023-10-31T08:24:29;8.15;;;1.98;;
73120;SDS011;61307;49.628;-1.624;2023-10-31T08:26:57;7.30;;;1.75;;
73120;SDS011;61307;49.628;-1.624;2023-10-31T08:29:25;7.85;;;1.80;;
73120;SDS011;61307;49.628;-1.624;2023-10-31T08:31:52;9.77;;;2.55;;
73120;SDS011;61307;49.628;-1.624;2023-10-31T08:34:19;4.55;;;1.80;;
73120;SDS011;61307;49.628;-1.624;2023-10-31T08:36:46;7.22;;;1.95;;
73120;SDS011;61307;49.628;-1.624;2023-10-31T08:39:13;7.40;;;2.13;;
73120;SDS011;61307;49.628;-1.624;2023-10-31T08:41:51;7.60;;;1.52;;
73120;SDS011;61307;49.628;-1.624;2023-10-31T08:44:19;5.78;;;1.80;;
73120;SDS011;61307;49.628;-1.624;2023-10-31T08:46:47;7.18;;;1.83;;
73120;SDS011;61307;49.628;-1.624;2023-10-31T08:49:15;7.20;;;1.92;;
73120;SDS011;61307;49.628;-1.624;2023-10-31T08:51:42;8.95;;;1.80;;
73120;SDS011;61307;49.628;-1.624;2023-10-31T08:54:10;6.30;;;1.70;;
73120;SDS011;61307;49.628;-1.624;2023-10-31T08:56:38;5.97;;;1.20;;
73120;SDS011;61307;49.628;-1.624;2023-10-31T08:59:06;5.40;;;1.75;;
73120;SDS011;61307;49.628;-1.624;2023-10-31T09:01:33;5.25;;;1.80;;
73120;SDS011;61307;49.628;-1.624;2023-10-31T09:04:00;4.38;;;1.63;;
73120;SDS011;61307;49.628;-1.624;2023-10-31T09:06:27;4.90;;;1.77;;
73120;SDS011;61307;49.628;-1.624;2023-10-31T09:08:55;3.58;;;1.63;;
73120;SDS011;61307;49.628;-1.624;2023-10-31T09:11:21;6.78;;;1.98;;
73120;SDS011;61307;49.628;-1.624;2023-10-31T09:13:48;7.70;;;2.08;;
73120;SDS011;61307;49.628;-1.624;2023-10-31T09:16:17;5.00;;;1.50;;
73120;SDS011;61307;49.628;-1.624;2023-10-31T09:18:44;6.70;;;1.70;;
73120;SDS011;61307;49.628;-1.624;2023-10-31T09:21:12;9.02;;;2.22;;
73120;SDS011;61307;49.628;-1.624;2023-10-31T09:23:39;6.20;;;2.13;;
73120;SDS011;61307;49.628;-1.624;2023-10-31T09:26:05;5.97;;;1.70;;
73120;SDS011;61307;49.628;-1.624;2023-10-31T09:28:32;6.15;;;1.88;;
73120;SDS011;61307;49.628;-1.624;2023-10-31T09:30:59;4.13;;;1.50;;
73120;SDS011;61307;49.628;-1.624;2023-10-31T09:33:28;6.30;;;1.63;;
73120;SDS011;61307;49.628;-1.624;2023-10-31T09:35:55;7.85;;;1.63;;
73120;SDS011;61307;49.628;-1.624;2023-10-31T09:38:22;6.15;;;1.70;;
73120;SDS011;61307;49.628;-1.624;2023-10-31T09:40:49;5.50;;;1.70;;
73120;SDS011;61307;49.628;-1.624;2023-10-31T09:43:16;7.60;;;2.00;;
73120;SDS011;61307;49.628;-1.624;2023-10-31T09:45:43;6.47;;;2.00;;
73120;SDS011;61307;49.628;-1.624;2023-10-31T09:48:11;5.47;;;1.98;;
73120;SDS011;61307;49.628;-1.624;2023-10-31T09:50:40;8.25;;;2.03;;
73120;SDS011;61307;49.628;-1.624;2023-10-31T09:53:07;5.55;;;1.55;;
73120;SDS011;61307;49.628;-1.624;2023-10-31T09:55:35;4.45;;;1.50;;
73120;SDS011;61307;49.628;-1.624;2023-10-31T09:58:03;7.07;;;1.88;;
73120;SDS011;61307;49.628;-1.624;2023-10-31T10:00:30;5.97;;;1.80;;
73120;SDS011;61307;49.628;-1.624;2023-10-31T10:02:57;7.30;;;1.85;;
73120;SDS011;61307;49.628;-1.624;2023-10-31T10:05:25;9.27;;;2.38;;
73120;SDS011;61307;49.628;-1.624;2023-10-31T10:07:56;6.45;;;1.73;;
73120;SDS011;61307;49.628;-1.624;2023-10-31T10:10:26;12.48;;;2.38;;
73120;SDS011;61307;49.628;-1.624;2023-10-31T10:12:55;6.07;;;2.13;;
73120;SDS011;61307;49.628;-1.624;2023-10-31T10:15:22;12.07;;;1.58;;
73120;SDS011;61307;49.628;-1.624;2023-10-31T10:17:49;11.55;;;1.98;;
73120;SDS011;61307;49.628;-1.624;2023-10-31T10:20:17;6.68;;;1.88;;
73120;SDS011;61307;49.628;-1.624;2023-10-31T10:22:44;7.40;;;1.50;;
73120;SDS011;61307;49.628;-1.624;2023-10-31T10:25:13;4.95;;;1.60;;
73120;SDS011;61307;49.628;-1.624;2023-10-31T10:27:42;5.90;;;1.90;;
73120;SDS011;61307;49.628;-1.624;2023-10-31T10:30:09;6.57;;;2.00;;
73120;SDS011;61307;49.628;-1.624;2023-10-31T10:32:39;6.80;;;2.03;;
73120;SDS011;61307;49.628;-1.624;2023-10-31T10:35:07;12.10;;;2.00;;
73120;SDS011;61307;49.628;-1.624;2023-10-31T10:37:35;14.93;;;2.25;;
73120;SDS011;61307;49.628;-1.624;2023-10-31T10:40:05;5.97;;;1.90;;
73120;SDS011;61307;49.628;-1.624;2023-10-31T10:42:36;12.05;;;1.95;;
73120;SDS011;61307;49.628;-1.624;2023-10-31T10:45:10;9.32;;;2.00;;
73120;SDS011;61307;49.628;-1.624;2023-10-31T10:47:40;8.20;;;1.95;;
73120;SDS011;61307;49.628;-1.624;2023-10-31T10:50:11;11.27;;;1.90;;
73120;SDS011;61307;49.628;-1.624;2023-10-31T10:52:41;6.13;;;2.28;;
73120;SDS011;61307;49.628;-1.624;2023-10-31T10:55:12;5.35;;;2.33;;
73120;SDS011;61307;49.628;-1.624;2023-10-31T10:57:52;8.85;;;1.98;;
73120;SDS011;61307;49.628;-1.624;2023-10-31T11:00:23;12.27;;;2.78;;
73120;SDS011;61307;49.628;-1.624;2023-10-31T11:02:52;7.30;;;2.30;;
73120;SDS011;61307;49.628;-1.624;2023-10-31T11:05:19;14.45;;;2.35;;
73120;SDS011;61307;49.628;-1.624;2023-10-31T11:07:47;9.85;;;2.33;;
73120;SDS011;61307;49.628;-1.624;2023-10-31T11:10:16;8.00;;;2.40;;
73120;SDS011;61307;49.628;-1.624;2023-10-31T11:12:44;7.35;;;2.05;;
73120;SDS011;61307;49.628;-1.624;2023-10-31T11:15:14;7.78;;;2.10;;
73120;SDS011;61307;49.628;-1.624;2023-10-31T11:17:43;8.15;;;2.42;;
73120;SDS011;61307;49.628;-1.624;2023-10-31T11:20:13;6.68;;;1.92;;
73120;SDS011;61307;49.628;-1.624;2023-10-31T11:22:50;7.35;;;2.13;;
73120;SDS011;61307;49.628;-1.624;2023-10-31T11:25:43;12.50;;;2.42;;
73120;SDS011;61307;49.628;-1.624;2023-10-31T11:28:19;6.70;;;1.85;;
73120;SDS011;61307;49.628;-1.624;2023-10-31T11:30:49;6.38;;;2.10;;
73120;SDS011;61307;49.628;-1.624;2023-10-31T11:33:31;8.75;;;1.98;;
73120;SDS011;61307;49.628;-1.624;2023-10-31T11:36:02;5.55;;;2.20;;
73120;SDS011;61307;49.628;-1.624;2023-10-31T11:38:31;7.78;;;2.38;;
73120;SDS011;61307;49.628;-1.624;2023-10-31T11:41:00;5.20;;;2.10;;
73120;SDS011;61307;49.628;-1.624;2023-10-31T11:43:50;8.20;;;2.38;;
73120;SDS011;61307;49.628;-1.624;2023-10-31T11:46:20;7.10;;;2.17;;
73120;SDS011;61307;49.628;-1.624;2023-10-31T11:48:50;9.60;;;1.60;;
73120;SDS011;61307;49.628;-1.624;2023-10-31T11:51:18;7.75;;;1.90;;
73120;SDS011;61307;49.628;-1.624;2023-10-31T11:53:46;6.22;;;1.92;;
73120;SDS011;61307;49.628;-1.624;2023-10-31T11:56:14;6.25;;;1.77;;
73120;SDS011;61307;49.628;-1.624;2023-10-31T11:58:57;5.25;;;1.92;;
73120;SDS011;61307;49.628;-1.624;2023-10-31T12:01:29;7.65;;;1.95;;
73120;SDS011;61307;49.628;-1.624;2023-10-31T12:03:56;7.75;;;1.58;;
73120;SDS011;61307;49.628;-1.624;2023-10-31T12:06:24;7.15;;;2.10;;
73120;SDS011;61307;49.628;-1.624;2023-10-31T12:08:51;7.00;;;2.33;;
73120;SDS011;61307;49.628;-1.624;2023-10-31T12:11:19;9.68;;;2.60;;
73120;SDS011;61307;49.628;-1.624;2023-10-31T12:13:53;5.35;;;1.45;;
73120;SDS011;61307;49.628;-1.624;2023-10-31T12:16:23;5.75;;;1.75;;
73120;SDS011;61307;49.628;-1.624;2023-10-31T12:18:56;4.05;;;1.65;;
73120;SDS011;61307;49.628;-1.624;2023-10-31T12:21:34;6.00;;;1.70;;
73120;SDS011;61307;49.628;-1.624;2023-10-31T12:24:03;5.35;;;2.03;;
73120;SDS011;61307;49.628;-1.624;2023-10-31T12:26:31;6.10;;;1.90;;
73120;SDS011;61307;49.628;-1.624;2023-10-31T12:34:34;5.20;;;1.90;;
73120;SDS011;61307;49.628;-1.624;2023-10-31T12:37:10;7.47;;;1.90;;
73120;SDS011;61307;49.628;-1.624;2023-10-31T12:39:39;4.93;;;1.50;;
73120;SDS011;61307;49.628;-1.624;2023-10-31T12:42:07;8.00;;;2.10;;
73120;SDS011;61307;49.628;-1.624;2023-10-31T12:44:34;7.38;;;2.00;;
73120;SDS011;61307;49.628;-1.624;2023-10-31T12:47:02;6.93;;;1.80;;
73120;SDS011;61307;49.628;-1.624;2023-10-31T12:49:35;5.28;;;1.60;;
73120;SDS011;61307;49.628;-1.624;2023-10-31T12:52:03;6.30;;;1.80;;
73120;SDS011;61307;49.628;-1.624;2023-10-31T12:54:45;6.35;;;2.05;;
73120;SDS011;61307;49.628;-1.624;2023-10-31T12:57:12;5.15;;;1.83;;
73120;SDS011;61307;49.628;-1.624;2023-10-31T12:59:42;5.38;;;1.70;;
73120;SDS011;61307;49.628;-1.624;2023-10-31T13:05:08;9.00;;;2.05;;
73120;SDS011;61307;49.628;-1.624;2023-10-31T13:07:47;7.28;;;2.13;;
73120;SDS011;61307;49.628;-1.624;2023-10-31T13:10:18;11.05;;;1.95;;
73120;SDS011;61307;49.628;-1.624;2023-10-31T13:12:45;5.78;;;1.88;;
73120;SDS011;61307;49.628;-1.624;2023-10-31T13:15:13;4.22;;;1.50;;
73120;SDS011;61307;49.628;-1.624;2023-10-31T13:17:41;6.13;;;1.50;;
73120;SDS011;61307;49.628;-1.624;2023-10-31T13:20:12;7.70;;;2.25;;
73120;SDS011;61307;49.628;-1.624;2023-10-31T13:22:41;5.38;;;2.22;;
73120;SDS011;61307;49.628;-1.624;2023-10-31T13:25:18;6.88;;;1.83;;
73120;SDS011;61307;49.628;-1.624;2023-10-31T13:27:45;7.72;;;1.85;;
73120;SDS011;61307;49.628;-1.624;2023-10-31T13:30:17;7.60;;;2.08;;
73120;SDS011;61307;49.628;-1.624;2023-10-31T13:32:44;10.05;;;2.28;;
73120;SDS011;61307;49.628;-1.624;2023-10-31T13:35:13;5.90;;;1.90;;
73120;SDS011;61307;49.628;-1.624;2023-10-31T13:37:40;8.48;;;1.70;;
73120;SDS011;61307;49.628;-1.624;2023-10-31T13:40:08;6.88;;;2.08;;
73120;SDS011;61307;49.628;-1.624;2023-10-31T13:43:02;10.50;;;2.40;;
73120;SDS011;61307;49.628;-1.624;2023-10-31T13:45:25;5.75;;;1.90;;
73120;SDS011;61307;49.628;-1.624;2023-10-31T13:51:24;9.15;;;1.90;;
73120;SDS011;61307;49.628;-1.624;2023-10-31T13:53:52;4.93;;;1.92;;
73120;SDS011;61307;49.628;-1.624;2023-10-31T13:56:21;7.15;;;1.90;;
73120;SDS011;61307;49.628;-1.624;2023-10-31T13:58:48;3.53;;;1.73;;
73120;SDS011;61307;49.628;-1.624;2023-10-31T14:01:15;7.80;;;2.42;;
73120;SDS011;61307;49.628;-1.624;2023-10-31T14:03:44;9.75;;;2.22;;
73120;SDS011;61307;49.628;-1.624;2023-10-31T14:06:12;17.67;;;2.00;;
73120;SDS011;61307;49.628;-1.624;2023-10-31T14:08:41;6.38;;;1.90;;
73120;SDS011;61307;49.628;-1.624;2023-10-31T14:11:21;6.63;;;2.08;;
73120;SDS011;61307;49.628;-1.624;2023-10-31T14:13:48;5.10;;;1.77;;
73120;SDS011;61307;49.628;-1.624;2023-10-31T14:16:17;6.65;;;1.92;;
73120;SDS011;61307;49.628;-1.624;2023-10-31T14:18:44;10.40;;;2.20;;
73120;SDS011;61307;49.628;-1.624;2023-10-31T14:21:26;5.78;;;2.10;;
73120;SDS011;61307;49.628;-1.624;2023-10-31T14:23:54;8.02;;;2.22;;
73120;SDS011;61307;49.628;-1.624;2023-10-31T14:26:22;9.05;;;2.15;;
73120;SDS011;61307;49.628;-1.624;2023-10-31T14:28:50;4.65;;;2.00;;
73120;SDS011;61307;49.628;-1.624;2023-10-31T14:31:17;9.27;;;2.25;;
73120;SDS011;61307;49.628;-1.624;2023-10-31T14:33:46;12.07;;;2.40;;
73120;SDS011;61307;49.628;-1.624;2023-10-31T14:36:14;7.88;;;2.15;;
73120;SDS011;61307;49.628;-1.624;2023-10-31T14:38:41;9.20;;;2.40;;
73120;SDS011;61307;49.628;-1.624;2023-10-31T14:41:23;6.07;;;2.22;;
73120;SDS011;61307;49.628;-1.624;2023-10-31T14:44:01;9.05;;;2.25;;
73120;SDS011;61307;49.628;-1.624;2023-10-31T14:46:34;7.40;;;2.00;;
73120;SDS011;61307;49.628;-1.624;2023-10-31T14:49:04;5.72;;;2.22;;
73120;SDS011;61307;49.628;-1.624;2023-10-31T14:51:35;6.75;;;2.17;;